sensor_id;sensor_type;location;lat;lon;timestamp;temperature;humidity
4487;DHT22;2256;48.740;9.106;2023-08-06T00:01:33;14.80;99.90
4487;DHT22;2256;48.740;9.106;2023-08-06T00:04:00;14.70;99.90
4487;DHT22;2256;48.740;9.106;2023-08-06T00:06:28;14.70;99.90
4487;DHT22;2256;48.740;9.106;2023-08-06T00:08:55;14.70;99.90
4487;DHT22;2256;48.740;9.106;2023-08-06T00:11:22;14.60;99.90
4487;DHT22;2256;48.740;9.106;2023-08-06T00:13:49;14.50;99.90
4487;DHT22;2256;48.740;9.106;2023-08-06T00:16:16;14.40;99.90
4487;DHT22;2256;48.740;9.106;2023-08-06T00:18:42;14.40;99.90
4487;DHT22;2256;48.740;9.106;2023-08-06T00:21:09;14.30;99.90
4487;DHT22;2256;48.740;9.106;2023-08-06T00:23:39;14.30;99.90
4487;DHT22;2256;48.740;9.106;2023-08-06T00:26:05;14.20;99.90
4487;DHT22;2256;48.740;9.106;2023-08-06T00:28:32;14.30;99.90
4487;DHT22;2256;48.740;9.106;2023-08-06T00:30:59;14.20;99.90
4487;DHT22;2256;48.740;9.106;2023-08-06T00:33:26;14.30;99.90
4487;DHT22;2256;48.740;9.106;2023-08-06T00:35:53;14.30;99.90
4487;DHT22;2256;48.740;9.106;2023-08-06T00:38:19;14.20;99.90
4487;DHT22;2256;48.740;9.106;2023-08-06T00:40:47;14.20;99.90
4487;DHT22;2256;48.740;9.106;2023-08-06T00:43:14;14.20;99.90
4487;DHT22;2256;48.740;9.106;2023-08-06T00:45:42;14.20;99.90
4487;DHT22;2256;48.740;9.106;2023-08-06T00:48:09;14.10;99.90
4487;DHT22;2256;48.740;9.106;2023-08-06T00:50:36;14.10;99.90
4487;DHT22;2256;48.740;9.106;2023-08-06T00:53:03;14.00;99.90
4487;DHT22;2256;48.740;9.106;2023-08-06T00:55:30;14.00;99.90
4487;DHT22;2256;48.740;9.106;2023-08-06T00:57:59;14.00;99.90
4487;DHT22;2256;48.740;9.106;2023-08-06T01:00:26;13.90;99.90
4487;DHT22;2256;48.740;9.106;2023-08-06T01:02:53;13.80;99.90
4487;DHT22;2256;48.740;9.106;2023-08-06T01:05:21;13.80;99.90
4487;DHT22;2256;48.740;9.106;2023-08-06T01:07:56;13.80;99.90
4487;DHT22;2256;48.740;9.106;2023-08-06T01:10:40;13.70;99.90
4487;DHT22;2256;48.740;9.106;2023-08-06T01:13:18;13.80;99.90
4487;DHT22;2256;48.740;9.106;2023-08-06T01:15:46;13.80;99.90
4487;DHT22;2256;48.740;9.106;2023-08-06T01:18:14;13.80;99.90
4487;DHT22;2256;48.740;9.106;2023-08-06T01:20:42;13.90;99.90
4487;DHT22;2256;48.740;9.106;2023-08-06T01:23:09;13.90;99.90
4487;DHT22;2256;48.740;9.106;2023-08-06T01:25:38;13.90;99.90
4487;DHT22;2256;48.740;9.106;2023-08-06T01:28:11;14.00;99.90
4487;DHT22;2256;48.740;9.106;2023-08-06T01:30:42;14.00;99.90
4487;DHT22;2256;48.740;9.106;2023-08-06T01:33:14;14.00;99.90
4487;DHT22;2256;48.740;9.106;2023-08-06T01:35:44;14.00;99.90
4487;DHT22;2256;48.740;9.106;2023-08-06T01:38:12;14.00;99.90
4487;DHT22;2256;48.740;9.106;2023-08-06T01:40:39;14.00;99.90
4487;DHT22;2256;48.740;9.106;2023-08-06T01:43:06;14.00;99.90
4487;DHT22;2256;48.740;9.106;2023-08-06T01:45:33;14.00;99.90
4487;DHT22;2256;48.740;9.106;2023-08-06T01:48:00;14.00;99.90
4487;DHT22;2256;48.740;9.106;2023-08-06T01:50:26;14.00;99.90
4487;DHT22;2256;48.740;9.106;2023-08-06T01:52:54;14.00;99.90
4487;DHT22;2256;48.740;9.106;2023-08-06T01:55:21;14.00;99.90
4487;DHT22;2256;48.740;9.106;2023-08-06T01:57:48;13.90;99.90
4487;DHT22;2256;48.740;9.106;2023-08-06T02:00:15;13.80;99.90
4487;DHT22;2256;48.740;9.106;2023-08-06T02:02:41;13.70;99.90
4487;DHT22;2256;48.740;9.106;2023-08-06T02:05:08;13.70;99.90
4487;DHT22;2256;48.740;9.106;2023-08-06T02:07:35;13.60;99.90
4487;DHT22;2256;48.740;9.106;2023-08-06T02:10:03;13.60;99.90
4487;DHT22;2256;48.740;9.106;2023-08-06T02:12:30;13.50;99.90
4487;DHT22;2256;48.740;9.106;2023-08-06T02:14:57;13.50;99.90
4487;DHT22;2256;48.740;9.106;2023-08-06T02:17:23;13.40;99.90
4487;DHT22;2256;48.740;9.106;2023-08-06T02:19:50;13.50;99.90
4487;DHT22;2256;48.740;9.106;2023-08-06T02:22:17;13.50;99.90
4487;DHT22;2256;48.740;9.106;2023-08-06T02:24:44;13.60;99.90
4487;DHT22;2256;48.740;9.106;2023-08-06T02:27:12;13.50;99.90
4487;DHT22;2256;48.740;9.106;2023-08-06T02:29:40;13.40;99.90
4487;DHT22;2256;48.740;9.106;2023-08-06T02:32:07;13.40;99.90
4487;DHT22;2256;48.740;9.106;2023-08-06T02:34:34;13.40;99.90
4487;DHT22;2256;48.740;9.106;2023-08-06T02:37:01;13.40;99.90
4487;DHT22;2256;48.740;9.106;2023-08-06T02:39:27;13.50;99.90
4487;DHT22;2256;48.740;9.106;2023-08-06T02:41:54;13.40;99.90
4487;DHT22;2256;48.740;9.106;2023-08-06T02:44:22;13.40;99.90
4487;DHT22;2256;48.740;9.106;2023-08-06T02:46:49;13.30;99.90
4487;DHT22;2256;48.740;9.106;2023-08-06T02:49:16;13.20;99.90
4487;DHT22;2256;48.740;9.106;2023-08-06T02:51:44;13.00;99.90
4487;DHT22;2256;48.740;9.106;2023-08-06T02:54:11;13.20;99.90
4487;DHT22;2256;48.740;9.106;2023-08-06T02:56:38;13.20;99.90
4487;DHT22;2256;48.740;9.106;2023-08-06T02:59:09;13.20;99.90
4487;DHT22;2256;48.740;9.106;2023-08-06T03:01:37;13.30;99.90
4487;DHT22;2256;48.740;9.106;2023-08-06T03:04:04;13.20;99.90
4487;DHT22;2256;48.740;9.106;2023-08-06T03:06:31;13.20;99.90
4487;DHT22;2256;48.740;9.106;2023-08-06T03:08:57;13.30;99.90
4487;DHT22;2256;48.740;9.106;2023-08-06T03:11:24;13.40;99.90
4487;DHT22;2256;48.740;9.106;2023-08-06T03:13:51;13.40;99.90
4487;DHT22;2256;48.740;9.106;2023-08-06T03:16:18;13.50;99.90
4487;DHT22;2256;48.740;9.106;2023-08-06T03:18:46;13.60;99.90
4487;DHT22;2256;48.740;9.106;2023-08-06T03:21:13;13.60;99.90
4487;DHT22;2256;48.740;9.106;2023-08-06T03:23:39;13.60;99.90
4487;DHT22;2256;48.740;9.106;2023-08-06T03:26:06;13.70;99.90
4487;DHT22;2256;48.740;9.106;2023-08-06T03:28:33;13.70;99.90
4487;DHT22;2256;48.740;9.106;2023-08-06T03:31:00;13.70;99.90
4487;DHT22;2256;48.740;9.106;2023-08-06T03:33:27;13.90;99.90
4487;DHT22;2256;48.740;9.106;2023-08-06T03:35:55;14.00;99.90
4487;DHT22;2256;48.740;9.106;2023-08-06T03:38:22;14.00;99.90
4487;DHT22;2256;48.740;9.106;2023-08-06T03:40:49;14.10;99.90
4487;DHT22;2256;48.740;9.106;2023-08-06T03:43:16;14.20;99.90
4487;DHT22;2256;48.740;9.106;2023-08-06T03:45:43;14.20;99.90
4487;DHT22;2256;48.740;9.106;2023-08-06T03:48:10;14.20;99.90
4487;DHT22;2256;48.740;9.106;2023-08-06T03:50:36;14.30;99.90
4487;DHT22;2256;48.740;9.106;2023-08-06T03:53:05;14.30;99.90
4487;DHT22;2256;48.740;9.106;2023-08-06T03:55:31;14.30;99.90
4487;DHT22;2256;48.740;9.106;2023-08-06T03:57:58;14.20;99.90
4487;DHT22;2256;48.740;9.106;2023-08-06T04:00:25;14.30;99.90
4487;DHT22;2256;48.740;9.106;2023-08-06T04:02:52;14.20;99.90
4487;DHT22;2256;48.740;9.106;2023-08-06T04:05:18;14.20;99.90
4487;DHT22;2256;48.740;9.106;2023-08-06T04:07:45;14.30;99.90
4487;DHT22;2256;48.740;9.106;2023-08-06T04:10:13;14.40;99.90
4487;DHT22;2256;48.740;9.106;2023-08-06T04:12:40;14.50;99.90
4487;DHT22;2256;48.740;9.106;2023-08-06T04:15:07;14.20;99.90
4487;DHT22;2256;48.740;9.106;2023-08-06T04:17:34;14.20;99.90
4487;DHT22;2256;48.740;9.106;2023-08-06T04:20:01;14.20;99.90
4487;DHT22;2256;48.740;9.106;2023-08-06T04:22:28;14.20;99.90
4487;DHT22;2256;48.740;9.106;2023-08-06T04:24:54;14.20;99.90
4487;DHT22;2256;48.740;9.106;2023-08-06T04:27:22;14.10;99.90
4487;DHT22;2256;48.740;9.106;2023-08-06T04:29:49;14.10;99.90
4487;DHT22;2256;48.740;9.106;2023-08-06T04:32:16;14.20;99.90
4487;DHT22;2256;48.740;9.106;2023-08-06T04:34:44;14.10;99.90
4487;DHT22;2256;48.740;9.106;2023-08-06T04:37:12;14.20;99.90
4487;DHT22;2256;48.740;9.106;2023-08-06T04:39:38;14.20;99.90
4487;DHT22;2256;48.740;9.106;2023-08-06T04:42:06;14.10;99.90
4487;DHT22;2256;48.740;9.106;2023-08-06T04:44:34;14.10;99.90
4487;DHT22;2256;48.740;9.106;2023-08-06T04:47:01;14.20;99.90
4487;DHT22;2256;48.740;9.106;2023-08-06T04:49:27;14.30;99.90
4487;DHT22;2256;48.740;9.106;2023-08-06T04:51:54;14.30;99.90
4487;DHT22;2256;48.740;9.106;2023-08-06T04:54:21;14.30;99.90
4487;DHT22;2256;48.740;9.106;2023-08-06T04:56:48;14.30;99.90
4487;DHT22;2256;48.740;9.106;2023-08-06T04:59:14;14.40;99.90
4487;DHT22;2256;48.740;9.106;2023-08-06T05:01:42;14.40;99.90
4487;DHT22;2256;48.740;9.106;2023-08-06T05:04:09;14.40;99.90
4487;DHT22;2256;48.740;9.106;2023-08-06T05:06:36;14.50;99.90
4487;DHT22;2256;48.740;9.106;2023-08-06T05:09:04;14.40;99.90
4487;DHT22;2256;48.740;9.106;2023-08-06T05:11:31;14.40;99.90
4487;DHT22;2256;48.740;9.106;2023-08-06T05:13:58;14.40;99.90
4487;DHT22;2256;48.740;9.106;2023-08-06T05:16:25;14.30;99.90
4487;DHT22;2256;48.740;9.106;2023-08-06T05:18:53;14.20;99.90
4487;DHT22;2256;48.740;9.106;2023-08-06T05:21:19;14.10;99.90
4487;DHT22;2256;48.740;9.106;2023-08-06T05:23:46;14.10;99.90
4487;DHT22;2256;48.740;9.106;2023-08-06T05:26:13;14.20;99.90
4487;DHT22;2256;48.740;9.106;2023-08-06T05:28:40;14.30;99.90
4487;DHT22;2256;48.740;9.106;2023-08-06T05:31:07;14.50;99.90
4487;DHT22;2256;48.740;9.106;2023-08-06T05:33:33;14.60;99.90
4487;DHT22;2256;48.740;9.106;2023-08-06T05:36:02;14.90;99.90
4487;DHT22;2256;48.740;9.106;2023-08-06T05:38:30;15.20;99.90
4487;DHT22;2256;48.740;9.106;2023-08-06T05:40:56;15.30;99.90
4487;DHT22;2256;48.740;9.106;2023-08-06T05:43:23;15.30;99.90
4487;DHT22;2256;48.740;9.106;2023-08-06T05:45:50;15.20;99.90
4487;DHT22;2256;48.740;9.106;2023-08-06T05:48:16;15.20;99.90
4487;DHT22;2256;48.740;9.106;2023-08-06T05:50:43;15.20;99.90
4487;DHT22;2256;48.740;9.106;2023-08-06T05:53:11;15.20;99.90
4487;DHT22;2256;48.740;9.106;2023-08-06T05:55:38;15.20;99.90
4487;DHT22;2256;48.740;9.106;2023-08-06T05:58:05;15.10;99.90
4487;DHT22;2256;48.740;9.106;2023-08-06T06:00:32;15.00;99.90
4487;DHT22;2256;48.740;9.106;2023-08-06T06:03:00;14.90;99.90
4487;DHT22;2256;48.740;9.106;2023-08-06T06:05:27;14.80;99.90
4487;DHT22;2256;48.740;9.106;2023-08-06T06:07:53;14.70;99.90
4487;DHT22;2256;48.740;9.106;2023-08-06T06:10:22;14.70;99.90
4487;DHT22;2256;48.740;9.106;2023-08-06T06:12:48;14.70;99.90
4487;DHT22;2256;48.740;9.106;2023-08-06T06:15:15;14.70;99.90
4487;DHT22;2256;48.740;9.106;2023-08-06T06:17:42;14.70;99.90
4487;DHT22;2256;48.740;9.106;2023-08-06T06:20:10;14.90;99.90
4487;DHT22;2256;48.740;9.106;2023-08-06T06:22:36;14.90;99.90
4487;DHT22;2256;48.740;9.106;2023-08-06T06:25:04;14.90;99.90
4487;DHT22;2256;48.740;9.106;2023-08-06T06:27:32;14.80;99.90
4487;DHT22;2256;48.740;9.106;2023-08-06T06:29:59;14.90;99.90
4487;DHT22;2256;48.740;9.106;2023-08-06T06:32:25;15.00;99.90
4487;DHT22;2256;48.740;9.106;2023-08-06T06:34:52;15.00;99.90
4487;DHT22;2256;48.740;9.106;2023-08-06T06:37:19;14.90;99.90
4487;DHT22;2256;48.740;9.106;2023-08-06T06:39:45;15.00;99.90
4487;DHT22;2256;48.740;9.106;2023-08-06T06:42:12;15.10;99.90
4487;DHT22;2256;48.740;9.106;2023-08-06T06:44:41;15.00;99.90
4487;DHT22;2256;48.740;9.106;2023-08-06T06:47:08;15.10;99.90
4487;DHT22;2256;48.740;9.106;2023-08-06T06:49:35;15.30;99.90
4487;DHT22;2256;48.740;9.106;2023-08-06T06:52:02;15.30;99.90
4487;DHT22;2256;48.740;9.106;2023-08-06T06:54:29;15.40;99.90
4487;DHT22;2256;48.740;9.106;2023-08-06T06:56:56;15.50;99.90
4487;DHT22;2256;48.740;9.106;2023-08-06T06:59:23;15.30;99.90
4487;DHT22;2256;48.740;9.106;2023-08-06T07:01:51;15.20;99.90
4487;DHT22;2256;48.740;9.106;2023-08-06T07:04:17;15.10;99.90
4487;DHT22;2256;48.740;9.106;2023-08-06T07:06:44;15.10;99.90
4487;DHT22;2256;48.740;9.106;2023-08-06T07:09:11;15.00;99.90
4487;DHT22;2256;48.740;9.106;2023-08-06T07:11:38;15.00;99.90
4487;DHT22;2256;48.740;9.106;2023-08-06T07:14:04;14.90;99.90
4487;DHT22;2256;48.740;9.106;2023-08-06T07:16:31;14.90;99.90
4487;DHT22;2256;48.740;9.106;2023-08-06T07:19:00;14.90;99.90
4487;DHT22;2256;48.740;9.106;2023-08-06T07:21:27;14.80;99.90
4487;DHT22;2256;48.740;9.106;2023-08-06T07:23:54;14.60;99.90
4487;DHT22;2256;48.740;9.106;2023-08-06T07:26:21;14.60;99.90
4487;DHT22;2256;48.740;9.106;2023-08-06T07:28:48;14.70;99.90
4487;DHT22;2256;48.740;9.106;2023-08-06T07:31:15;14.60;99.90
4487;DHT22;2256;48.740;9.106;2023-08-06T07:33:41;14.70;99.90
4487;DHT22;2256;48.740;9.106;2023-08-06T07:36:11;14.60;99.90
4487;DHT22;2256;48.740;9.106;2023-08-06T07:38:38;14.60;99.90
4487;DHT22;2256;48.740;9.106;2023-08-06T07:41:05;14.60;99.90
4487;DHT22;2256;48.740;9.106;2023-08-06T07:43:32;14.60;99.90
4487;DHT22;2256;48.740;9.106;2023-08-06T07:45:59;14.70;99.90
4487;DHT22;2256;48.740;9.106;2023-08-06T07:48:26;14.80;99.90
4487;DHT22;2256;48.740;9.106;2023-08-06T07:50:53;14.80;99.90
4487;DHT22;2256;48.740;9.106;2023-08-06T07:53:22;15.00;99.90
4487;DHT22;2256;48.740;9.106;2023-08-06T07:55:53;15.30;99.90
4487;DHT22;2256;48.740;9.106;2023-08-06T07:58:20;15.60;99.90
4487;DHT22;2256;48.740;9.106;2023-08-06T08:00:47;15.70;99.90
4487;DHT22;2256;48.740;9.106;2023-08-06T08:03:15;15.90;99.90
4487;DHT22;2256;48.740;9.106;2023-08-06T08:05:42;16.00;99.90
4487;DHT22;2256;48.740;9.106;2023-08-06T08:08:09;16.10;99.90
4487;DHT22;2256;48.740;9.106;2023-08-06T08:10:37;16.10;99.90
4487;DHT22;2256;48.740;9.106;2023-08-06T08:13:04;16.00;99.90
4487;DHT22;2256;48.740;9.106;2023-08-06T08:15:32;16.20;99.90
4487;DHT22;2256;48.740;9.106;2023-08-06T08:17:59;16.00;99.90
4487;DHT22;2256;48.740;9.106;2023-08-06T08:20:26;16.10;99.90
4487;DHT22;2256;48.740;9.106;2023-08-06T08:22:57;16.10;99.90
4487;DHT22;2256;48.740;9.106;2023-08-06T08:25:24;16.20;99.90
4487;DHT22;2256;48.740;9.106;2023-08-06T08:27:53;16.20;99.90
4487;DHT22;2256;48.740;9.106;2023-08-06T08:30:20;16.10;99.90
4487;DHT22;2256;48.740;9.106;2023-08-06T08:32:47;16.10;99.90
4487;DHT22;2256;48.740;9.106;2023-08-06T08:35:14;16.00;99.90
4487;DHT22;2256;48.740;9.106;2023-08-06T08:37:41;15.80;99.90
4487;DHT22;2256;48.740;9.106;2023-08-06T08:40:09;15.60;99.90
4487;DHT22;2256;48.740;9.106;2023-08-06T08:42:36;15.50;99.90
4487;DHT22;2256;48.740;9.106;2023-08-06T08:45:07;15.60;99.90
4487;DHT22;2256;48.740;9.106;2023-08-06T08:47:38;15.70;99.90
4487;DHT22;2256;48.740;9.106;2023-08-06T08:50:06;15.70;99.90
4487;DHT22;2256;48.740;9.106;2023-08-06T08:52:35;15.90;99.90
4487;DHT22;2256;48.740;9.106;2023-08-06T08:55:03;16.00;99.90
4487;DHT22;2256;48.740;9.106;2023-08-06T08:57:30;16.10;99.90
4487;DHT22;2256;48.740;9.106;2023-08-06T08:59:57;16.10;99.90
4487;DHT22;2256;48.740;9.106;2023-08-06T09:02:28;16.10;99.90
4487;DHT22;2256;48.740;9.106;2023-08-06T09:04:56;16.20;99.90
4487;DHT22;2256;48.740;9.106;2023-08-06T09:07:25;16.30;99.90
4487;DHT22;2256;48.740;9.106;2023-08-06T09:09:53;16.60;99.90
4487;DHT22;2256;48.740;9.106;2023-08-06T09:12:21;17.20;99.90
4487;DHT22;2256;48.740;9.106;2023-08-06T09:14:48;17.80;99.90
4487;DHT22;2256;48.740;9.106;2023-08-06T09:17:14;18.20;99.90
4487;DHT22;2256;48.740;9.106;2023-08-06T09:19:46;18.20;99.90
4487;DHT22;2256;48.740;9.106;2023-08-06T09:22:15;18.00;99.90
4487;DHT22;2256;48.740;9.106;2023-08-06T09:24:42;17.80;99.90
4487;DHT22;2256;48.740;9.106;2023-08-06T09:27:12;17.70;99.90
4487;DHT22;2256;48.740;9.106;2023-08-06T09:29:41;17.80;99.90
4487;DHT22;2256;48.740;9.106;2023-08-06T09:32:08;17.70;99.90
4487;DHT22;2256;48.740;9.106;2023-08-06T09:34:35;17.70;99.90
4487;DHT22;2256;48.740;9.106;2023-08-06T09:37:03;17.90;99.90
4487;DHT22;2256;48.740;9.106;2023-08-06T09:39:31;17.80;99.90
4487;DHT22;2256;48.740;9.106;2023-08-06T09:42:00;17.60;99.90
4487;DHT22;2256;48.740;9.106;2023-08-06T09:44:27;17.40;99.90
4487;DHT22;2256;48.740;9.106;2023-08-06T09:46:55;17.50;99.90
4487;DHT22;2256;48.740;9.106;2023-08-06T09:49:25;17.40;99.90
4487;DHT22;2256;48.740;9.106;2023-08-06T09:51:52;17.30;99.90
4487;DHT22;2256;48.740;9.106;2023-08-06T09:54:23;17.20;99.90
4487;DHT22;2256;48.740;9.106;2023-08-06T09:56:50;17.10;99.90
4487;DHT22;2256;48.740;9.106;2023-08-06T09:59:17;17.00;99.90
4487;DHT22;2256;48.740;9.106;2023-08-06T10:01:45;17.00;99.90
4487;DHT22;2256;48.740;9.106;2023-08-06T10:04:14;16.90;99.90
4487;DHT22;2256;48.740;9.106;2023-08-06T10:06:42;16.60;99.90
4487;DHT22;2256;48.740;9.106;2023-08-06T10:09:09;16.50;99.90
4487;DHT22;2256;48.740;9.106;2023-08-06T10:11:38;16.40;99.90
4487;DHT22;2256;48.740;9.106;2023-08-06T10:14:09;16.60;99.90
4487;DHT22;2256;48.740;9.106;2023-08-06T10:16:37;16.60;99.90
4487;DHT22;2256;48.740;9.106;2023-08-06T10:19:05;16.50;99.90
4487;DHT22;2256;48.740;9.106;2023-08-06T10:21:33;16.30;99.90
4487;DHT22;2256;48.740;9.106;2023-08-06T10:24:00;16.10;99.90
4487;DHT22;2256;48.740;9.106;2023-08-06T10:26:29;16.10;99.90
4487;DHT22;2256;48.740;9.106;2023-08-06T10:28:57;15.90;99.90
4487;DHT22;2256;48.740;9.106;2023-08-06T10:31:53;15.90;99.90
4487;DHT22;2256;48.740;9.106;2023-08-06T10:34:19;16.10;99.90
4487;DHT22;2256;48.740;9.106;2023-08-06T10:36:46;16.10;99.90
4487;DHT22;2256;48.740;9.106;2023-08-06T10:39:13;16.10;99.90
4487;DHT22;2256;48.740;9.106;2023-08-06T10:41:42;16.10;99.90
4487;DHT22;2256;48.740;9.106;2023-08-06T10:44:11;16.20;99.90
4487;DHT22;2256;48.740;9.106;2023-08-06T10:46:38;16.20;99.90
4487;DHT22;2256;48.740;9.106;2023-08-06T10:49:05;16.40;99.90
4487;DHT22;2256;48.740;9.106;2023-08-06T10:51:33;16.50;99.90
4487;DHT22;2256;48.740;9.106;2023-08-06T10:53:59;16.60;99.90
4487;DHT22;2256;48.740;9.106;2023-08-06T10:56:26;16.70;99.90
4487;DHT22;2256;48.740;9.106;2023-08-06T10:58:54;16.70;99.90
4487;DHT22;2256;48.740;9.106;2023-08-06T11:01:24;16.80;99.90
4487;DHT22;2256;48.740;9.106;2023-08-06T11:03:51;16.90;99.90
4487;DHT22;2256;48.740;9.106;2023-08-06T11:06:19;16.90;99.90
4487;DHT22;2256;48.740;9.106;2023-08-06T11:08:50;16.90;99.90
4487;DHT22;2256;48.740;9.106;2023-08-06T11:11:18;16.80;99.90
4487;DHT22;2256;48.740;9.106;2023-08-06T11:13:46;16.70;99.90
4487;DHT22;2256;48.740;9.106;2023-08-06T11:16:13;16.50;99.90
4487;DHT22;2256;48.740;9.106;2023-08-06T11:18:42;16.10;99.90
4487;DHT22;2256;48.740;9.106;2023-08-06T11:21:09;15.80;99.90
4487;DHT22;2256;48.740;9.106;2023-08-06T11:23:37;15.60;99.90
4487;DHT22;2256;48.740;9.106;2023-08-06T11:26:04;15.60;99.90
4487;DHT22;2256;48.740;9.106;2023-08-06T11:28:31;15.80;99.90
4487;DHT22;2256;48.740;9.106;2023-08-06T11:30:58;16.40;99.90
4487;DHT22;2256;48.740;9.106;2023-08-06T11:33:28;16.90;99.90
4487;DHT22;2256;48.740;9.106;2023-08-06T11:35:57;17.00;99.90
4487;DHT22;2256;48.740;9.106;2023-08-06T11:38:26;16.70;99.90
4487;DHT22;2256;48.740;9.106;2023-08-06T11:40:54;16.30;99.90
4487;DHT22;2256;48.740;9.106;2023-08-06T11:43:21;16.30;99.90
4487;DHT22;2256;48.740;9.106;2023-08-06T11:45:48;16.20;99.90
4487;DHT22;2256;48.740;9.106;2023-08-06T11:48:15;16.20;99.90
4487;DHT22;2256;48.740;9.106;2023-08-06T11:50:45;16.00;99.90
4487;DHT22;2256;48.740;9.106;2023-08-06T11:53:16;16.00;99.90
4487;DHT22;2256;48.740;9.106;2023-08-06T11:55:43;15.80;99.90
4487;DHT22;2256;48.740;9.106;2023-08-06T11:58:11;15.40;99.90
4487;DHT22;2256;48.740;9.106;2023-08-06T12:00:38;15.30;99.90
4487;DHT22;2256;48.740;9.106;2023-08-06T12:03:05;15.20;99.90
4487;DHT22;2256;48.740;9.106;2023-08-06T12:05:32;15.10;99.90
4487;DHT22;2256;48.740;9.106;2023-08-06T12:08:00;15.10;99.90
4487;DHT22;2256;48.740;9.106;2023-08-06T12:10:29;15.30;99.90
4487;DHT22;2256;48.740;9.106;2023-08-06T12:12:56;15.40;99.90
4487;DHT22;2256;48.740;9.106;2023-08-06T12:15:24;15.50;99.90
4487;DHT22;2256;48.740;9.106;2023-08-06T12:17:51;15.50;99.90
4487;DHT22;2256;48.740;9.106;2023-08-06T12:20:17;15.60;99.90
4487;DHT22;2256;48.740;9.106;2023-08-06T12:22:44;15.40;99.90
4487;DHT22;2256;48.740;9.106;2023-08-06T12:25:12;15.40;99.90
4487;DHT22;2256;48.740;9.106;2023-08-06T12:27:42;15.40;99.90
4487;DHT22;2256;48.740;9.106;2023-08-06T12:30:10;15.30;99.90
4487;DHT22;2256;48.740;9.106;2023-08-06T12:32:37;15.50;99.90
4487;DHT22;2256;48.740;9.106;2023-08-06T12:35:05;15.70;99.90
4487;DHT22;2256;48.740;9.106;2023-08-06T12:37:34;16.10;99.90
4487;DHT22;2256;48.740;9.106;2023-08-06T12:40:00;16.60;99.90
4487;DHT22;2256;48.740;9.106;2023-08-06T12:42:28;17.10;99.90
4487;DHT22;2256;48.740;9.106;2023-08-06T12:44:56;17.40;99.90
4487;DHT22;2256;48.740;9.106;2023-08-06T12:47:22;17.90;99.90
4487;DHT22;2256;48.740;9.106;2023-08-06T12:49:49;17.70;99.90
4487;DHT22;2256;48.740;9.106;2023-08-06T12:52:16;17.40;99.90
4487;DHT22;2256;48.740;9.106;2023-08-06T12:54:45;17.20;99.90
4487;DHT22;2256;48.740;9.106;2023-08-06T12:57:12;17.00;99.90
4487;DHT22;2256;48.740;9.106;2023-08-06T12:59:39;16.90;99.90
4487;DHT22;2256;48.740;9.106;2023-08-06T13:02:07;16.80;99.90
4487;DHT22;2256;48.740;9.106;2023-08-06T13:04:34;16.60;99.90
4487;DHT22;2256;48.740;9.106;2023-08-06T13:07:01;16.40;99.90
4487;DHT22;2256;48.740;9.106;2023-08-06T13:09:28;16.30;99.90
4487;DHT22;2256;48.740;9.106;2023-08-06T13:11:55;16.30;99.90
4487;DHT22;2256;48.740;9.106;2023-08-06T13:14:22;16.40;99.90
4487;DHT22;2256;48.740;9.106;2023-08-06T13:16:48;16.60;99.90
4487;DHT22;2256;48.740;9.106;2023-08-06T13:19:16;16.90;99.90
4487;DHT22;2256;48.740;9.106;2023-08-06T13:22:02;17.20;99.90
4487;DHT22;2256;48.740;9.106;2023-08-06T13:24:30;17.30;99.90
4487;DHT22;2256;48.740;9.106;2023-08-06T13:26:57;17.20;99.90
4487;DHT22;2256;48.740;9.106;2023-08-06T13:29:25;17.30;99.90
4487;DHT22;2256;48.740;9.106;2023-08-06T13:31:52;17.40;99.90
4487;DHT22;2256;48.740;9.106;2023-08-06T13:34:20;17.50;99.90
4487;DHT22;2256;48.740;9.106;2023-08-06T13:36:47;17.10;99.90
4487;DHT22;2256;48.740;9.106;2023-08-06T13:39:14;16.80;99.90
4487;DHT22;2256;48.740;9.106;2023-08-06T13:41:42;16.70;99.90
4487;DHT22;2256;48.740;9.106;2023-08-06T13:44:09;16.50;99.90
4487;DHT22;2256;48.740;9.106;2023-08-06T13:46:39;16.40;99.90
4487;DHT22;2256;48.740;9.106;2023-08-06T13:49:06;16.50;99.90
4487;DHT22;2256;48.740;9.106;2023-08-06T13:51:34;16.80;99.90
4487;DHT22;2256;48.740;9.106;2023-08-06T13:54:01;17.30;99.90
4487;DHT22;2256;48.740;9.106;2023-08-06T13:56:28;17.40;99.90
4487;DHT22;2256;48.740;9.106;2023-08-06T13:58:56;17.50;99.90
4487;DHT22;2256;48.740;9.106;2023-08-06T14:01:22;17.80;99.90
4487;DHT22;2256;48.740;9.106;2023-08-06T14:03:49;18.30;99.90
4487;DHT22;2256;48.740;9.106;2023-08-06T14:06:16;18.40;99.90
4487;DHT22;2256;48.740;9.106;2023-08-06T14:08:44;18.70;99.90
4487;DHT22;2256;48.740;9.106;2023-08-06T14:11:11;19.00;99.90
4487;DHT22;2256;48.740;9.106;2023-08-06T14:13:38;18.80;99.90
4487;DHT22;2256;48.740;9.106;2023-08-06T14:16:05;18.20;99.90
4487;DHT22;2256;48.740;9.106;2023-08-06T14:18:32;18.10;99.90
4487;DHT22;2256;48.740;9.106;2023-08-06T14:20:59;18.10;99.90
4487;DHT22;2256;48.740;9.106;2023-08-06T14:23:26;18.00;99.90
4487;DHT22;2256;48.740;9.106;2023-08-06T14:25:54;17.80;99.90
4487;DHT22;2256;48.740;9.106;2023-08-06T14:28:21;17.60;99.90
4487;DHT22;2256;48.740;9.106;2023-08-06T14:30:48;17.50;99.90
4487;DHT22;2256;48.740;9.106;2023-08-06T14:33:14;17.80;99.90
4487;DHT22;2256;48.740;9.106;2023-08-06T14:35:41;17.90;99.90
4487;DHT22;2256;48.740;9.106;2023-08-06T14:38:08;17.50;99.90
4487;DHT22;2256;48.740;9.106;2023-08-06T14:40:35;16.90;99.90
4487;DHT22;2256;48.740;9.106;2023-08-06T14:43:05;16.70;99.90
4487;DHT22;2256;48.740;9.106;2023-08-06T14:45:32;16.50;99.90
4487;DHT22;2256;48.740;9.106;2023-08-06T14:47:59;16.40;99.90
4487;DHT22;2256;48.740;9.106;2023-08-06T14:50:26;16.30;99.90
4487;DHT22;2256;48.740;9.106;2023-08-06T14:52:53;16.30;99.90
4487;DHT22;2256;48.740;9.106;2023-08-06T14:55:28;16.30;99.90
4487;DHT22;2256;48.740;9.106;2023-08-06T14:57:55;16.00;99.90
4487;DHT22;2256;48.740;9.106;2023-08-06T15:00:23;15.80;99.90
4487;DHT22;2256;48.740;9.106;2023-08-06T15:02:50;15.70;99.90
4487;DHT22;2256;48.740;9.106;2023-08-06T15:05:17;15.80;99.90
4487;DHT22;2256;48.740;9.106;2023-08-06T15:07:44;15.80;99.90
4487;DHT22;2256;48.740;9.106;2023-08-06T15:10:10;15.70;99.90
4487;DHT22;2256;48.740;9.106;2023-08-06T15:12:37;15.70;99.90
4487;DHT22;2256;48.740;9.106;2023-08-06T15:15:07;15.90;99.90
4487;DHT22;2256;48.740;9.106;2023-08-06T15:17:35;16.30;99.90
4487;DHT22;2256;48.740;9.106;2023-08-06T15:20:03;16.50;99.90
4487;DHT22;2256;48.740;9.106;2023-08-06T15:22:30;16.80;99.90
4487;DHT22;2256;48.740;9.106;2023-08-06T15:24:58;17.10;99.90
4487;DHT22;2256;48.740;9.106;2023-08-06T15:27:24;17.10;99.90
4487;DHT22;2256;48.740;9.106;2023-08-06T15:29:51;17.10;99.90
4487;DHT22;2256;48.740;9.106;2023-08-06T15:32:18;17.10;99.90
4487;DHT22;2256;48.740;9.106;2023-08-06T15:34:47;17.40;99.90
4487;DHT22;2256;48.740;9.106;2023-08-06T15:37:14;17.20;99.90
4487;DHT22;2256;48.740;9.106;2023-08-06T15:39:41;16.90;99.90
4487;DHT22;2256;48.740;9.106;2023-08-06T15:42:08;16.80;99.90
4487;DHT22;2256;48.740;9.106;2023-08-06T15:44:35;17.00;99.90
4487;DHT22;2256;48.740;9.106;2023-08-06T15:47:02;16.90;99.90
4487;DHT22;2256;48.740;9.106;2023-08-06T15:49:28;17.00;99.90
4487;DHT22;2256;48.740;9.106;2023-08-06T15:51:57;17.00;99.90
4487;DHT22;2256;48.740;9.106;2023-08-06T15:54:23;16.80;99.90
4487;DHT22;2256;48.740;9.106;2023-08-06T15:56:50;16.70;99.90
4487;DHT22;2256;48.740;9.106;2023-08-06T15:59:24;16.50;99.90
4487;DHT22;2256;48.740;9.106;2023-08-06T16:01:51;16.40;99.90
4487;DHT22;2256;48.740;9.106;2023-08-06T16:04:18;16.20;99.90